Time;durP1;ratioP1;P1;durP2;ratioP2;P2;SDS_P1;SDS_P2;PMS_P1;PMS_P2;Temp;Humidity;BMP_temperature;BMP_pressure;BME280_temperature;BME280_humidity;BME280_pressure;Samples;Min_cycle;Max_cycle;Signal;HPM_P1;HPM_P2
2021/10/28 00:13:41;;;;;;;33.30;23.00;;;11.00;99.90;;;;;;4987357;28;20341;-83
2021/10/28 00:16:15;;;;;;;31.23;23.47;;;11.00;99.90;;;;;;4987325;28;20294;-83
2021/10/28 00:18:44;;;;;;;35.17;25.33;;;10.90;99.90;;;;;;4987565;28;20287;-84
2021/10/28 00:21:12;;;;;;;35.10;26.27;;;10.90;99.90;;;;;;4987757;28;20215;-82
2021/10/28 00:23:45;;;;;;;35.57;24.53;;;10.90;99.90;;;;;;4988053;28;20219;-83
2021/10/28 00:26:14;;;;;;;34.97;25.50;;;10.90;99.90;;;;;;4986922;28;20627;-80
2021/10/28 00:28:41;;;;;;;38.07;25.57;;;10.90;99.90;;;;;;4987165;28;20827;-81
2021/10/28 00:31:09;;;;;;;36.87;25.53;;;10.90;99.90;;;;;;4987943;28;20321;-81
2021/10/28 00:33:37;;;;;;;34.20;24.70;;;10.90;99.90;;;;;;4987268;28;20227;-81
2021/10/28 00:36:05;;;;;;;34.77;24.80;;;10.90;99.90;;;;;;4987120;28;20211;-81
2021/10/28 00:38:33;;;;;;;38.03;25.87;;;10.80;99.90;;;;;;4986590;28;20218;-82
2021/10/28 00:41:01;;;;;;;35.30;25.50;;;10.80;99.90;;;;;;4986603;28;20216;-82
2021/10/28 00:43:30;;;;;;;35.20;24.43;;;10.80;99.90;;;;;;4988495;28;20249;-82
2021/10/28 00:45:57;;;;;;;30.20;23.33;;;10.80;99.90;;;;;;5006302;28;20610;-82
2021/10/28 00:48:24;;;;;;;33.07;24.63;;;10.80;99.90;;;;;;5006429;28;20274;-80
2021/10/28 00:50:53;;;;;;;32.57;24.13;;;10.80;99.90;;;;;;4992828;28;20224;-82
2021/10/28 00:53:20;;;;;;;30.87;23.90;;;10.80;99.90;;;;;;4986242;28;20673;-81
2021/10/28 00:55:47;;;;;;;33.43;24.43;;;10.70;99.90;;;;;;5002591;28;20216;-81
2021/10/28 00:58:20;;;;;;;31.90;23.63;;;10.70;99.90;;;;;;5004922;28;20199;-81
2021/10/28 01:00:48;;;;;;;32.70;24.07;;;10.70;99.90;;;;;;4987135;28;20204;-81
2021/10/28 01:03:15;;;;;;;29.13;22.23;;;10.70;99.90;;;;;;4986912;28;20204;-81
2021/10/28 01:05:43;;;;;;;34.57;23.63;;;10.70;99.90;;;;;;4986955;28;20212;-81
2021/10/28 01:08:09;;;;;;;33.40;22.57;;;10.70;99.90;;;;;;4987512;28;20196;-80
2021/10/28 01:10:36;;;;;;;29.30;23.07;;;10.70;99.90;;;;;;4986746;28;20263;-81
2021/10/28 01:13:04;;;;;;;28.67;21.10;;;10.70;99.90;;;;;;4987610;28;20595;-83
2021/10/28 01:15:31;;;;;;;30.53;23.17;;;10.70;99.90;;;;;;4986804;28;20453;-82
2021/10/28 01:17:59;;;;;;;33.30;24.47;;;10.70;99.90;;;;;;4986362;28;20203;-82
2021/10/28 01:20:27;;;;;;;29.17;22.33;;;10.70;99.90;;;;;;4987319;28;20207;-81
2021/10/28 01:22:54;;;;;;;30.17;22.57;;;10.60;99.90;;;;;;4987831;28;20290;-83
2021/10/28 01:25:21;;;;;;;34.57;23.77;;;10.60;99.90;;;;;;4996112;28;20208;-81
2021/10/28 01:27:48;;;;;;;27.00;20.57;;;10.60;99.90;;;;;;4996724;28;20204;-81
2021/10/28 01:30:15;;;;;;;35.70;22.63;;;10.60;99.90;;;;;;4986537;28;20860;-80
2021/10/28 01:32:41;;;;;;;28.37;22.13;;;10.60;99.90;;;;;;4986136;28;20281;-83
2021/10/28 01:35:09;;;;;;;30.67;21.23;;;10.60;99.90;;;;;;4986750;28;20221;-81
2021/10/28 01:37:41;;;;;;;31.57;22.40;;;10.60;99.90;;;;;;4986971;28;20218;-82
2021/10/28 01:40:10;;;;;;;31.30;22.83;;;10.60;99.90;;;;;;4986431;28;20607;-82
2021/10/28 01:42:37;;;;;;;28.70;21.87;;;10.60;99.90;;;;;;4986469;28;20208;-82
2021/10/28 01:45:05;;;;;;;33.07;22.10;;;10.60;99.90;;;;;;4998973;28;20272;-82
2021/10/28 01:47:32;;;;;;;32.27;23.00;;;10.60;99.90;;;;;;5005646;28;20242;-81
2021/10/28 01:49:58;;;;;;;32.83;22.03;;;10.60;99.90;;;;;;5006520;28;20234;-82
2021/10/28 01:52:25;;;;;;;28.93;21.40;;;10.60;99.90;;;;;;5005182;28;20211;-82
2021/10/28 01:54:54;;;;;;;29.13;21.07;;;10.60;99.90;;;;;;5007621;28;20231;-80
2021/10/28 01:57:22;;;;;;;29.77;20.83;;;10.60;99.90;;;;;;5006635;28;20211;-82
2021/10/28 01:59:50;;;;;;;29.40;21.20;;;10.60;99.90;;;;;;5008106;28;20230;-83
2021/10/28 02:02:17;;;;;;;27.80;20.47;;;10.70;99.90;;;;;;4991004;28;20476;-81
2021/10/28 02:04:44;;;;;;;28.87;22.00;;;10.60;99.90;;;;;;4990885;28;20257;-82
2021/10/28 02:07:10;;;;;;;26.40;19.77;;;10.70;99.90;;;;;;4990023;28;20196;-82
2021/10/28 02:09:37;;;;;;;32.93;22.07;;;10.70;99.90;;;;;;4989131;28;20746;-82
2021/10/28 02:12:07;;;;;;;37.67;22.67;;;10.70;99.90;;;;;;4989062;28;20246;-83
2021/10/28 02:14:34;;;;;;;35.00;22.70;;;10.70;99.90;;;;;;4988458;28;20232;-82
2021/10/28 02:17:00;;;;;;;34.13;22.73;;;10.60;99.90;;;;;;5001089;28;20211;-82
2021/10/28 02:19:27;;;;;;;30.53;23.17;;;10.60;99.90;;;;;;5007999;28;20207;-83
2021/10/28 02:21:54;;;;;;;30.60;22.07;;;10.60;99.90;;;;;;4986000;28;20216;-82
2021/10/28 02:24:21;;;;;;;27.87;20.87;;;10.60;99.90;;;;;;4991032;28;20578;-81
2021/10/28 02:26:50;;;;;;;29.77;20.43;;;10.60;99.90;;;;;;5007361;28;20204;-82
2021/10/28 02:29:18;;;;;;;30.43;22.40;;;10.60;99.90;;;;;;5008013;28;20241;-80
2021/10/28 02:31:46;;;;;;;39.17;23.53;;;10.50;99.90;;;;;;4989712;28;20200;-83
2021/10/28 02:34:14;;;;;;;38.97;24.23;;;10.50;99.90;;;;;;4989145;28;20220;-83
2021/10/28 02:36:41;;;;;;;37.73;24.87;;;10.50;99.90;;;;;;4989310;28;20219;-84
2021/10/28 02:39:08;;;;;;;35.77;23.90;;;10.60;99.90;;;;;;4990121;28;20208;-80
2021/10/28 02:41:37;;;;;;;36.73;26.37;;;10.60;99.90;;;;;;4988374;28;20486;-83
2021/10/28 02:44:04;;;;;;;37.50;26.23;;;10.50;99.90;;;;;;4989170;28;20204;-83
2021/10/28 02:46:32;;;;;;;34.63;24.90;;;10.50;99.90;;;;;;4989765;28;20212;-83
2021/10/28 02:48:59;;;;;;;40.47;25.30;;;10.50;99.90;;;;;;4989313;28;20603;-81
2021/10/28 02:51:26;;;;;;;38.67;26.73;;;10.40;99.90;;;;;;4988932;28;20238;-82
2021/10/28 02:53:53;;;;;;;39.57;27.53;;;10.40;99.90;;;;;;4989054;28;20219;-83
2021/10/28 02:56:20;;;;;;;40.77;27.60;;;10.40;99.90;;;;;;4988740;28;20192;-80
2021/10/28 02:58:47;;;;;;;46.80;27.50;;;10.40;99.90;;;;;;4989197;28;20208;-82
2021/10/28 03:01:14;;;;;;;39.77;25.47;;;10.40;99.90;;;;;;4989941;28;20593;-82
2021/10/28 03:03:42;;;;;;;42.97;28.43;;;10.40;99.90;;;;;;4988737;28;20216;-83
2021/10/28 03:06:09;;;;;;;40.03;27.00;;;10.40;99.90;;;;;;4989541;28;20204;-81
2021/10/28 03:08:36;;;;;;;41.50;26.27;;;10.40;99.90;;;;;;4989071;28;20257;-82
2021/10/28 03:11:06;;;;;;;44.97;27.07;;;10.40;99.90;;;;;;4988514;28;20247;-83
2021/10/28 03:13:33;;;;;;;46.10;28.00;;;10.40;99.90;;;;;;4988879;28;20571;-83
2021/10/28 03:16:10;;;;;;;40.03;27.57;;;10.30;99.90;;;;;;4988408;28;20232;-82
2021/10/28 03:27:00;;;;;;;46.87;28.57;;;10.30;99.90;;;;;;4963940;28;20210;-84
2021/10/28 03:29:27;;;;;;;42.03;27.90;;;10.30;99.90;;;;;;4986757;28;20723;-83
2021/10/28 03:31:54;;;;;;;43.90;25.70;;;10.30;99.90;;;;;;4988074;28;20215;-82
2021/10/28 03:34:21;;;;;;;39.53;24.77;;;10.30;99.90;;;;;;4989298;28;20227;-83
2021/10/28 03:36:54;;;;;;;40.50;24.73;;;10.30;99.90;;;;;;4989236;28;20196;-81
2021/10/28 03:39:39;;;;;;;38.20;25.47;;;10.30;99.90;;;;;;4988775;28;20498;-80
2021/10/28 03:45:24;;;;;;;45.60;26.97;;;10.30;99.90;;;;;;5009062;28;20212;-83
2021/10/28 03:58:58;;;;;;;43.03;26.83;;;10.30;99.90;;;;;;4979351;28;20204;-82
2021/10/28 04:01:50;;;;;;;44.70;26.70;;;10.30;99.90;;;;;;4987199;28;20295;-82
2021/10/28 04:21:03;;;;;;;39.17;23.10;;;10.30;99.90;;;;;;4997010;28;20214;-83
2021/10/28 04:29:15;;;;;;;39.67;23.37;;;10.30;99.90;;;;;;4963059;28;20212;-82
2021/10/28 04:31:43;;;;;;;40.23;24.70;;;10.30;99.90;;;;;;4977706;28;20208;-81
2021/10/28 04:34:12;;;;;;;41.60;23.20;;;10.30;99.90;;;;;;4987729;28;20196;-81
2021/10/28 04:36:39;;;;;;;46.97;25.53;;;10.30;99.90;;;;;;4987810;28;20499;-83
2021/10/28 04:39:08;;;;;;;37.50;22.83;;;10.30;99.90;;;;;;4987732;28;20188;-82
2021/10/28 04:41:37;;;;;;;34.93;21.53;;;10.30;99.90;;;;;;4987551;28;20204;-84
2021/10/28 04:44:07;;;;;;;40.10;23.87;;;10.30;99.90;;;;;;4988218;28;20208;-82
2021/10/28 04:46:33;;;;;;;33.70;22.23;;;10.30;99.90;;;;;;4987668;28;20216;-83
2021/10/28 04:49:00;;;;;;;35.43;22.47;;;10.30;99.90;;;;;;4987770;28;20268;-81
2021/10/28 04:51:27;;;;;;;39.57;24.03;;;10.30;99.90;;;;;;4987348;28;20527;-82
2021/10/28 04:53:54;;;;;;;36.13;22.50;;;10.30;99.90;;;;;;4985933;28;20208;-82
2021/10/28 04:56:21;;;;;;;34.30;22.10;;;10.30;99.90;;;;;;4984185;28;20232;-82
2021/10/28 04:58:49;;;;;;;30.67;21.00;;;10.30;99.90;;;;;;4986487;28;20203;-82
2021/10/28 05:01:16;;;;;;;34.17;20.83;;;10.30;99.90;;;;;;4986917;28;20216;-82
2021/10/28 05:03:43;;;;;;;29.70;20.53;;;10.30;99.90;;;;;;4986707;28;20214;-83
2021/10/28 05:06:10;;;;;;;31.87;20.03;;;10.30;99.90;;;;;;4986424;28;20701;-83
2021/10/28 05:08:37;;;;;;;30.87;20.30;;;10.30;99.90;;;;;;4986049;28;20239;-81
2021/10/28 05:11:04;;;;;;;32.50;21.47;;;10.20;99.90;;;;;;4984477;28;20232;-83
2021/10/28 05:13:30;;;;;;;28.37;20.27;;;10.30;99.90;;;;;;4984539;28;20196;-83
2021/10/28 05:15:59;;;;;;;33.77;20.80;;;10.30;99.90;;;;;;4987545;28;20263;-83
2021/10/28 05:18:26;;;;;;;29.80;20.33;;;10.30;99.90;;;;;;4986638;28;20204;-82
2021/10/28 05:20:53;;;;;;;27.43;18.90;;;10.20;99.90;;;;;;4984838;28;20200;-82
2021/10/28 05:23:21;;;;;;;31.10;19.80;;;10.20;99.90;;;;;;4983432;28;20211;-81
2021/10/28 05:25:48;;;;;;;31.13;19.77;;;10.30;99.90;;;;;;4998819;28;20559;-82
2021/10/28 05:28:16;;;;;;;28.03;18.60;;;10.20;99.90;;;;;;5009457;28;20218;-83
2021/10/28 05:30:43;;;;;;;32.57;20.23;;;10.20;99.90;;;;;;5009070;28;20320;-81
2021/10/28 05:33:11;;;;;;;25.10;18.07;;;10.20;99.90;;;;;;4995973;28;20216;-81
2021/10/28 05:35:38;;;;;;;30.17;19.20;;;10.30;99.90;;;;;;4990541;28;20223;-80
2021/10/28 05:38:04;;;;;;;26.60;18.57;;;10.30;99.90;;;;;;4989922;28;20207;-82
2021/10/28 05:40:31;;;;;;;28.87;18.30;;;10.30;99.90;;;;;;4990222;28;20208;-82
2021/10/28 05:42:58;;;;;;;28.87;18.10;;;10.30;99.90;;;;;;4991048;28;20204;-82
2021/10/28 05:45:25;;;;;;;26.50;19.23;;;10.30;99.90;;;;;;4989699;28;20269;-80
2021/10/28 05:47:52;;;;;;;26.47;18.03;;;10.30;99.90;;;;;;4990677;28;20208;-82
2021/10/28 05:50:21;;;;;;;26.27;19.27;;;10.20;99.90;;;;;;4990130;28;20211;-83
2021/10/28 05:52:51;;;;;;;24.93;18.23;;;10.20;99.90;;;;;;4990100;28;20207;-83
2021/10/28 05:55:19;;;;;;;29.57;18.50;;;10.20;99.90;;;;;;5008618;28;20261;-82
2021/10/28 05:57:46;;;;;;;26.23;18.73;;;10.20;99.90;;;;;;5009284;28;20246;-82
2021/10/28 06:00:14;;;;;;;25.93;18.40;;;10.20;99.90;;;;;;4988809;28;20220;-83
2021/10/28 06:02:41;;;;;;;27.30;19.20;;;10.10;99.90;;;;;;4989968;28;20212;-82
2021/10/28 06:05:09;;;;;;;28.07;19.00;;;10.10;99.90;;;;;;4990200;28;20215;-83
2021/10/28 06:07:38;;;;;;;30.37;18.27;;;10.10;99.90;;;;;;4989986;28;20196;-82
2021/10/28 06:10:06;;;;;;;28.77;19.73;;;10.10;99.90;;;;;;4989505;28;20625;-83
2021/10/28 06:12:36;;;;;;;24.80;18.00;;;10.10;99.90;;;;;;4989508;28;20907;-83
2021/10/28 06:15:04;;;;;;;25.50;18.73;;;10.00;99.90;;;;;;4989371;28;20240;-82
2021/10/28 06:17:33;;;;;;;25.67;17.77;;;10.00;99.90;;;;;;4989814;28;20835;-83
2021/10/28 06:20:00;;;;;;;27.93;18.73;;;10.00;99.90;;;;;;4989296;28;20624;-82
2021/10/28 06:22:27;;;;;;;27.50;18.90;;;10.00;99.90;;;;;;4990327;28;20228;-83
2021/10/28 06:24:56;;;;;;;28.53;18.47;;;10.00;99.90;;;;;;4989636;28;20212;-81
2021/10/28 06:27:23;;;;;;;23.77;18.17;;;10.00;99.90;;;;;;4989295;28;20200;-82
2021/10/28 06:29:50;;;;;;;26.90;18.57;;;10.00;99.90;;;;;;4989951;28;20238;-82
2021/10/28 06:32:17;;;;;;;24.97;17.87;;;10.00;99.90;;;;;;4989378;28;20529;-82
2021/10/28 06:34:45;;;;;;;22.23;16.63;;;9.90;99.90;;;;;;4989438;28;20709;-82
2021/10/28 06:37:12;;;;;;;27.00;18.40;;;9.90;99.90;;;;;;4989622;28;20204;-81
2021/10/28 06:39:41;;;;;;;26.47;17.73;;;9.90;99.90;;;;;;4988866;28;20281;-82
2021/10/28 06:42:13;;;;;;;23.00;17.10;;;9.90;99.90;;;;;;4989390;28;20291;-80
2021/10/28 06:44:41;;;;;;;22.60;16.93;;;9.80;99.90;;;;;;4990258;28;20282;-82
2021/10/28 06:47:08;;;;;;;22.90;18.03;;;9.90;99.90;;;;;;5003003;28;20206;-83
2021/10/28 06:49:38;;;;;;;23.70;17.03;;;9.90;99.90;;;;;;5008790;28;20210;-85
2021/10/28 06:52:10;;;;;;;25.13;17.93;;;9.90;99.90;;;;;;5006311;28;20616;-82
2021/10/28 06:54:37;;;;;;;23.47;17.40;;;9.90;99.90;;;;;;4988435;28;20664;-84
2021/10/28 06:57:30;;;;;;;26.27;18.93;;;9.90;99.90;;;;;;4987059;28;20240;-82
2021/10/28 07:02:44;;;;;;;25.70;16.97;;;9.90;99.90;;;;;;4988970;28;20358;-82
2021/10/28 07:05:11;;;;;;;25.60;17.57;;;9.90;99.90;;;;;;4988864;28;20291;-82
2021/10/28 07:07:38;;;;;;;24.83;17.17;;;9.90;99.90;;;;;;4995219;28;20211;-83
2021/10/28 07:10:11;;;;;;;27.27;17.30;;;9.80;99.90;;;;;;5008787;28;20595;-81
2021/10/28 07:12:47;;;;;;;22.33;16.20;;;9.80;99.90;;;;;;5008131;28;20211;-81
2021/10/28 07:15:20;;;;;;;22.10;15.93;;;9.90;99.90;;;;;;4987890;28;20238;-84
2021/10/28 07:18:02;;;;;;;20.63;15.23;;;9.90;99.90;;;;;;4987823;28;20196;-80
2021/10/28 07:20:57;;;;;;;21.27;15.80;;;9.90;99.90;;;;;;4987240;28;20214;-80
2021/10/28 07:26:35;;;;;;;24.27;16.30;;;9.90;99.90;;;;;;4988013;28;20248;-82
2021/10/28 07:29:55;;;;;;;22.37;17.13;;;9.90;99.90;;;;;;4990691;28;20215;-81
2021/10/28 07:32:13;;;;;;;19.47;16.10;;;10.00;99.90;;;;;;5022550;28;20287;-81
2021/10/28 07:57:23;;;;;;;22.67;14.73;;;10.20;99.90;;;;;;5053329;28;20279;-81
2021/10/28 08:16:58;;;;;;;21.47;14.87;;;10.70;99.90;;;;;;5053661;28;20533;-82
2021/10/28 08:19:31;;;;;;;17.17;12.87;;;10.70;99.90;;;;;;5090553;28;20206;-81
2021/10/28 08:22:01;;;;;;;15.17;12.67;;;10.80;99.90;;;;;;5090439;28;20232;-82
2021/10/28 08:29:58;;;;;;;19.13;12.43;;;11.00;99.90;;;;;;5081903;28;20749;-82
2021/10/28 08:32:24;;;;;;;19.27;11.97;;;11.00;99.90;;;;;;5062939;28;20201;-81
2021/10/28 08:34:53;;;;;;;16.27;12.57;;;11.10;99.90;;;;;;5065316;28;20200;-82
2021/10/28 08:37:22;;;;;;;18.07;12.47;;;11.10;99.90;;;;;;5065073;28;20300;-81
2021/10/28 08:39:51;;;;;;;16.57;12.70;;;11.20;99.90;;;;;;5064824;28;20211;-82
2021/10/28 08:42:19;;;;;;;16.67;12.20;;;11.20;99.90;;;;;;5063233;28;20235;-83
2021/10/28 08:44:49;;;;;;;15.43;12.77;;;11.20;99.90;;;;;;5064962;28;20213;-82
2021/10/28 08:47:17;;;;;;;13.90;11.53;;;11.30;99.90;;;;;;5066280;28;20208;-80
2021/10/28 08:49:47;;;;;;;14.27;12.17;;;11.40;99.90;;;;;;5069691;28;20213;-82
2021/10/28 08:52:35;;;;;;;17.30;12.23;;;11.40;99.90;;;;;;5069280;28;20486;-81
2021/10/28 08:55:14;;;;;;;14.40;11.60;;;11.50;99.90;;;;;;5065495;28;20207;-82
2021/10/28 08:58:10;;;;;;;20.20;12.20;;;11.60;99.90;;;;;;5079809;28;20212;-84
2021/10/28 09:26:19;;;;;;;12.77;9.77;;;12.30;99.90;;;;;;5051595;28;20584;-80
2021/10/28 09:28:51;;;;;;;13.87;9.77;;;12.40;99.90;;;;;;5051728;28;20202;-83
2021/10/28 09:31:20;;;;;;;12.77;9.90;;;12.50;99.90;;;;;;5051570;28;20194;-81
2021/10/28 09:33:58;;;;;;;14.93;9.53;;;12.60;99.90;;;;;;5062951;28;20216;-82
2021/10/28 09:47:35;;;;;;;15.03;8.83;;;13.10;99.90;;;;;;5045890;28;20516;-81
2021/10/28 09:50:14;;;;;;;10.77;8.77;;;13.10;99.90;;;;;;5050852;28;20194;-81
2021/10/28 09:52:52;;;;;;;13.77;9.10;;;13.20;99.90;;;;;;5049902;28;20284;-81
2021/10/28 09:58:27;;;;;;;10.43;9.30;;;13.40;99.90;;;;;;5050659;28;20276;-81
2021/10/28 10:00:54;;;;;;;13.07;8.93;;;13.50;99.90;;;;;;5050633;28;20233;-83
2021/10/28 10:03:24;;;;;;;11.67;8.40;;;13.50;99.90;;;;;;5049812;28;20205;-83
2021/10/28 10:05:56;;;;;;;11.73;9.33;;;13.50;99.90;;;;;;5050785;28;20758;-81
2021/10/28 10:08:24;;;;;;;12.30;9.90;;;13.60;99.90;;;;;;5050365;28;20208;-82
2021/10/28 10:10:52;;;;;;;13.40;9.30;;;13.60;99.90;;;;;;5050663;28;20206;-81
2021/10/28 10:13:27;;;;;;;12.20;9.90;;;13.70;99.90;;;;;;5063728;28;20204;-81
2021/10/28 10:15:56;;;;;;;13.23;9.83;;;13.70;99.90;;;;;;5069713;28;20199;-83
2021/10/28 10:18:24;;;;;;;12.87;9.80;;;13.80;99.90;;;;;;5069484;28;20880;-84
2021/10/28 10:20:54;;;;;;;13.57;10.27;;;13.90;99.90;;;;;;5068657;28;20553;-84
2021/10/28 10:23:43;;;;;;;13.90;9.80;;;13.90;99.90;;;;;;5049538;28;20198;-83
2021/10/28 10:26:33;;;;;;;11.77;9.73;;;13.90;99.90;;;;;;5066206;28;20286;-80
2021/10/28 12:16:57;;;;;;;10.63;9.50;;;15.70;99.90;;;;;;5048659;28;20236;-86
2021/10/28 12:22:55;;;;;;;11.57;8.70;;;15.70;99.90;;;;;;5048511;28;20209;-81
2021/10/28 12:25:41;;;;;;;11.37;8.13;;;15.80;99.90;;;;;;5058728;28;20255;-86
2021/10/28 12:45:09;;;;;;;12.85;9.00;;;15.90;99.90;;;;;;5036830;28;20289;-84
2021/10/28 12:50:37;;;;;;;9.70;8.63;;;15.80;99.90;;;;;;5052093;28;20492;-79
2021/10/28 13:02:33;;;;;;;11.47;9.83;;;15.70;99.90;;;;;;5062536;28;20244;-82
2021/10/28 13:05:29;;;;;;;13.30;10.47;;;15.70;99.90;;;;;;5058561;28;20212;-82
2021/10/28 13:38:39;;;;;;;15.20;9.97;;;15.50;99.90;;;;;;5027947;28;20213;-85
2021/10/28 13:49:43;;;;;;;13.53;9.97;;;15.50;99.90;;;;;;5049579;28;20212;-77
2021/10/28 13:52:24;;;;;;;16.10;9.60;;;15.50;99.90;;;;;;5049518;28;20299;-78
2021/10/28 13:57:50;;;;;;;10.03;7.83;;;15.50;99.90;;;;;;5048323;28;20255;-81
2021/10/28 14:23:03;;;;;;;11.60;8.07;;;15.30;99.90;;;;;;5023230;28;20388;-81
2021/10/28 15:28:42;;;;;;;9.47;7.07;;;14.90;99.90;;;;;;5002641;28;20261;-81
2021/10/28 15:36:35;;;;;;;9.90;6.63;;;14.80;99.90;;;;;;5064560;28;20192;-85
2021/10/28 15:39:09;;;;;;;7.93;6.50;;;14.70;99.90;;;;;;5064730;28;20202;-85
2021/10/28 15:41:50;;;;;;;11.07;7.10;;;14.70;99.90;;;;;;5057430;28;20563;-88
2021/10/28 15:53:05;;;;;;;8.63;6.40;;;14.60;99.90;;;;;;5028209;28;20201;-83
2021/10/28 16:23:08;;;;;;;9.97;7.67;;;14.00;99.90;;;;;;5029678;28;20567;-81
2021/10/28 16:25:36;;;;;;;10.13;6.87;;;13.90;99.90;;;;;;5039994;28;20206;-81
2021/10/28 16:28:03;;;;;;;8.57;6.73;;;13.90;99.90;;;;;;5048337;28;20819;-79
2021/10/28 16:30:30;;;;;;;9.23;6.80;;;13.80;99.90;;;;;;5048369;28;20251;-80
2021/10/28 16:32:57;;;;;;;9.70;6.90;;;13.80;99.90;;;;;;5035430;28;20238;-80
2021/10/28 16:35:23;;;;;;;9.23;6.67;;;13.80;99.90;;;;;;5028550;28;20230;-80
2021/10/28 16:37:51;;;;;;;9.33;6.63;;;13.70;99.90;;;;;;5028625;28;20324;-80
2021/10/28 16:40:18;;;;;;;9.17;5.63;;;13.70;99.90;;;;;;5047191;28;20225;-80
2021/10/28 16:42:46;;;;;;;11.30;7.33;;;13.70;99.90;;;;;;5048020;28;20741;-80
2021/10/28 16:45:13;;;;;;;7.87;6.27;;;13.60;99.90;;;;;;5047930;28;20668;-80
2021/10/28 16:47:39;;;;;;;9.53;7.03;;;13.60;99.90;;;;;;5047284;28;20213;-80
2021/10/28 16:50:08;;;;;;;11.83;6.87;;;13.60;99.90;;;;;;5028662;28;20245;-80
2021/10/28 16:52:35;;;;;;;8.60;6.77;;;13.60;99.90;;;;;;5026940;28;20202;-79
2021/10/28 16:55:02;;;;;;;9.17;6.47;;;13.50;99.90;;;;;;5036446;28;20217;-81
2021/10/28 16:57:29;;;;;;;8.70;6.30;;;13.50;99.90;;;;;;5047920;28;20201;-80
2021/10/28 16:59:57;;;;;;;9.90;6.60;;;13.50;99.90;;;;;;5048151;28;20209;-80
2021/10/28 17:02:24;;;;;;;8.50;6.67;;;13.50;99.90;;;;;;5048963;28;20198;-83
2021/10/28 17:04:51;;;;;;;9.43;6.83;;;13.40;99.90;;;;;;5048905;28;20213;-83
2021/10/28 17:07:18;;;;;;;7.17;5.83;;;13.40;99.90;;;;;;5049913;28;20206;-83
2021/10/28 17:09:44;;;;;;;7.57;6.33;;;13.40;99.90;;;;;;5050096;28;20214;-82
2021/10/28 17:12:11;;;;;;;9.23;7.10;;;13.40;99.90;;;;;;5048609;28;20844;-83
2021/10/28 17:14:39;;;;;;;8.37;6.10;;;13.30;99.90;;;;;;5048567;28;20233;-83
2021/10/28 17:17:07;;;;;;;8.00;6.40;;;13.30;99.90;;;;;;5048666;28;20206;-81
2021/10/28 17:19:34;;;;;;;8.40;6.87;;;13.20;99.90;;;;;;5047274;28;20206;-83
2021/10/28 17:22:01;;;;;;;9.43;6.87;;;13.20;99.90;;;;;;5048337;28;20194;-83
2021/10/28 17:24:34;;;;;;;9.43;6.73;;;13.20;99.90;;;;;;5046506;28;20233;-82
2021/10/28 17:27:01;;;;;;;10.87;6.73;;;13.20;99.90;;;;;;5038956;28;20289;-82
2021/10/28 17:29:28;;;;;;;11.07;7.30;;;13.10;99.90;;;;;;5047245;28;20206;-80
2021/10/28 17:31:56;;;;;;;9.07;7.63;;;13.10;99.90;;;;;;5048067;28;20257;-84
2021/10/28 17:34:25;;;;;;;12.40;7.00;;;13.00;99.90;;;;;;5038865;28;20203;-82
2021/10/28 17:36:53;;;;;;;12.40;6.87;;;13.00;99.90;;;;;;5027681;28;20225;-83
2021/10/28 17:39:21;;;;;;;10.37;7.17;;;13.00;99.90;;;;;;5028961;28;20594;-83
2021/10/28 17:41:49;;;;;;;8.93;7.23;;;13.00;99.90;;;;;;5028476;28;20209;-83
2021/10/28 17:44:16;;;;;;;10.67;7.03;;;13.00;99.90;;;;;;5028726;28;20226;-84
2021/10/28 17:46:43;;;;;;;8.70;6.90;;;12.90;99.90;;;;;;5045474;28;20216;-84
2021/10/28 17:49:10;;;;;;;9.90;7.40;;;12.90;99.90;;;;;;5048424;28;20209;-80
2021/10/28 17:51:38;;;;;;;9.37;7.07;;;12.90;99.90;;;;;;5048631;28;20233;-84
2021/10/28 17:54:09;;;;;;;8.67;7.43;;;12.90;99.90;;;;;;5049667;28;20317;-84
2021/10/28 17:56:37;;;;;;;10.07;7.17;;;12.80;99.90;;;;;;5048807;28;20567;-81
2021/10/28 21:56:28;;;;;;;11.97;8.47;;;11.60;99.90;;;;;;4680050;30;20263;-80
2021/10/28 22:01:54;;;;;;;13.30;8.63;;;11.60;99.90;;;;;;5147384;27;20472;-85
2021/10/28 22:04:39;;;;;;;10.20;8.20;;;11.50;99.90;;;;;;5122657;28;20263;-84
2021/10/28 22:26:25;;;;;;;12.20;7.93;;;11.40;99.90;;;;;;5095961;28;20223;-84
2021/10/28 22:28:52;;;;;;;10.13;8.30;;;11.40;99.90;;;;;;5086803;28;20197;-85
2021/10/28 22:31:19;;;;;;;10.13;8.23;;;11.40;99.90;;;;;;5085434;28;20193;-85
2021/10/28 22:33:48;;;;;;;10.57;8.40;;;11.40;99.90;;;;;;5086988;28;20595;-84
2021/10/28 22:36:21;;;;;;;10.47;8.33;;;11.40;99.90;;;;;;5098104;28;20299;-88
2021/10/28 22:38:56;;;;;;;10.83;8.57;;;11.30;99.90;;;;;;5100423;28;20203;-85
2021/10/28 22:41:23;;;;;;;12.00;8.17;;;11.30;99.90;;;;;;5085039;28;20215;-85
2021/10/28 22:43:50;;;;;;;11.57;8.83;;;11.30;99.90;;;;;;5085564;28;20204;-89
2021/10/28 22:46:17;;;;;;;17.03;9.43;;;11.30;99.90;;;;;;5085047;28;20201;-85
2021/10/28 22:48:44;;;;;;;11.80;8.60;;;11.30;99.90;;;;;;5085980;28;20204;-87
2021/10/28 22:51:13;;;;;;;12.90;8.77;;;11.20;99.90;;;;;;5086314;28;20209;-84
2021/10/28 22:53:41;;;;;;;14.30;8.70;;;11.20;99.90;;;;;;5085064;28;20224;-86
2021/10/28 22:56:09;;;;;;;11.57;8.60;;;11.30;99.90;;;;;;5085722;28;20208;-85
2021/10/28 22:58:40;;;;;;;14.53;9.00;;;11.20;99.90;;;;;;5086282;28;20205;-90
2021/10/28 23:01:11;;;;;;;9.37;7.97;;;11.20;99.90;;;;;;5085822;28;20596;-82
2021/10/28 23:04:03;;;;;;;11.30;9.07;;;11.20;99.90;;;;;;5087131;28;20200;-85
2021/10/28 23:07:02;;;;;;;12.07;8.90;;;11.20;99.90;;;;;;5087403;28;20196;-84
2021/10/28 23:12:48;;;;;;;13.07;9.30;;;11.20;99.90;;;;;;5077310;28;20200;-83
2021/10/28 23:15:35;;;;;;;14.37;9.93;;;11.20;99.90;;;;;;5075493;28;20358;-85
2021/10/28 23:20:48;;;;;;;11.60;8.63;;;11.10;99.90;;;;;;5092568;28;20247;-87
2021/10/28 23:23:17;;;;;;;12.03;9.17;;;11.10;99.90;;;;;;5078821;28;20205;-84
2021/10/28 23:25:45;;;;;;;14.13;9.30;;;11.10;99.90;;;;;;5080636;28;20216;-83
2021/10/28 23:28:12;;;;;;;14.03;9.53;;;11.10;99.90;;;;;;5073431;28;20224;-86
2021/10/28 23:30:39;;;;;;;12.60;10.07;;;11.10;99.90;;;;;;5072638;28;20216;-86
2021/10/28 23:33:08;;;;;;;10.93;9.30;;;11.10;99.90;;;;;;5055525;28;20373;-86
2021/10/28 23:35:35;;;;;;;12.17;9.60;;;11.10;99.90;;;;;;5072484;28;20461;-86
2021/10/28 23:38:03;;;;;;;12.83;9.80;;;11.10;99.90;;;;;;5073729;28;20213;-88
2021/10/28 23:40:31;;;;;;;13.03;10.33;;;11.10;99.90;;;;;;5088009;28;20231;-85
2021/10/28 23:42:58;;;;;;;13.90;10.97;;;11.10;99.90;;;;;;5093721;28;20227;-82
2021/10/28 23:45:25;;;;;;;13.40;10.20;;;11.10;99.90;;;;;;5094058;28;20215;-85
2021/10/28 23:47:51;;;;;;;15.93;9.83;;;11.10;99.90;;;;;;5079810;28;20198;-85
2021/10/28 23:50:18;;;;;;;13.20;9.40;;;11.10;99.90;;;;;;5073145;28;20212;-87
2021/10/28 23:52:45;;;;;;;10.70;8.90;;;11.10;99.90;;;;;;5073592;28;20501;-85
2021/10/28 23:55:12;;;;;;;13.00;9.27;;;11.10;99.90;;;;;;5072897;28;20213;-89
2021/10/28 23:57:40;;;;;;;17.80;10.23;;;11.00;99.90;;;;;;5072851;28;20255;-84
